sensor_id;sensor_type;location;lat;lon;timestamp;P1;durP1;ratioP1;P2;durP2;ratioP2
4047;SDS011;2038;51.728;6.674;2023-07-28T00:00:17;8.07;;;5.00;;
4047;SDS011;2038;51.728;6.674;2023-07-28T00:02:43;8.90;;;5.50;;
4047;SDS011;2038;51.728;6.674;2023-07-28T00:05:09;5.50;;;5.00;;
4047;SDS011;2038;51.728;6.674;2023-07-28T00:07:35;5.90;;;4.90;;
4047;SDS011;2038;51.728;6.674;2023-07-28T00:10:02;6.17;;;5.57;;
4047;SDS011;2038;51.728;6.674;2023-07-28T00:12:28;5.43;;;4.93;;
4047;SDS011;2038;51.728;6.674;2023-07-28T00:14:55;6.40;;;5.43;;
4047;SDS011;2038;51.728;6.674;2023-07-28T00:17:21;5.20;;;4.70;;
4047;SDS011;2038;51.728;6.674;2023-07-28T00:19:47;5.47;;;4.97;;
4047;SDS011;2038;51.728;6.674;2023-07-28T00:22:14;5.43;;;4.93;;
4047;SDS011;2038;51.728;6.674;2023-07-28T00:24:40;6.33;;;4.97;;
4047;SDS011;2038;51.728;6.674;2023-07-28T00:27:06;5.43;;;4.90;;
4047;SDS011;2038;51.728;6.674;2023-07-28T00:29:32;6.00;;;4.77;;
4047;SDS011;2038;51.728;6.674;2023-07-28T00:31:58;8.73;;;4.80;;
4047;SDS011;2038;51.728;6.674;2023-07-28T00:34:25;5.60;;;5.10;;
4047;SDS011;2038;51.728;6.674;2023-07-28T00:36:52;6.27;;;4.97;;
4047;SDS011;2038;51.728;6.674;2023-07-28T00:39:18;5.50;;;4.80;;
4047;SDS011;2038;51.728;6.674;2023-07-28T00:41:45;5.13;;;4.63;;
4047;SDS011;2038;51.728;6.674;2023-07-28T00:44:11;5.70;;;3.90;;
4047;SDS011;2038;51.728;6.674;2023-07-28T00:46:39;4.80;;;4.30;;
4047;SDS011;2038;51.728;6.674;2023-07-28T00:49:06;5.23;;;4.63;;
4047;SDS011;2038;51.728;6.674;2023-07-28T00:51:32;4.93;;;4.43;;
4047;SDS011;2038;51.728;6.674;2023-07-28T00:54:00;6.53;;;4.63;;
4047;SDS011;2038;51.728;6.674;2023-07-28T00:56:29;5.73;;;4.77;;
4047;SDS011;2038;51.728;6.674;2023-07-28T00:58:56;4.83;;;3.80;;
4047;SDS011;2038;51.728;6.674;2023-07-28T01:01:22;4.90;;;4.40;;
4047;SDS011;2038;51.728;6.674;2023-07-28T01:03:49;7.00;;;4.57;;
4047;SDS011;2038;51.728;6.674;2023-07-28T01:09:12;7.63;;;4.17;;
4047;SDS011;2038;51.728;6.674;2023-07-28T01:14:23;4.87;;;4.40;;
4047;SDS011;2038;51.728;6.674;2023-07-28T01:16:50;4.20;;;3.60;;
4047;SDS011;2038;51.728;6.674;2023-07-28T01:19:17;5.80;;;5.23;;
4047;SDS011;2038;51.728;6.674;2023-07-28T01:21:48;5.03;;;3.90;;
4047;SDS011;2038;51.728;6.674;2023-07-28T01:24:48;5.30;;;3.77;;
4047;SDS011;2038;51.728;6.674;2023-07-28T01:27:46;5.37;;;4.53;;
4047;SDS011;2038;51.728;6.674;2023-07-28T01:30:16;5.63;;;4.00;;
4047;SDS011;2038;51.728;6.674;2023-07-28T01:32:44;5.00;;;4.50;;
4047;SDS011;2038;51.728;6.674;2023-07-28T01:35:11;4.87;;;4.33;;
4047;SDS011;2038;51.728;6.674;2023-07-28T01:37:37;5.77;;;5.17;;
4047;SDS011;2038;51.728;6.674;2023-07-28T01:40:04;6.60;;;5.80;;
4047;SDS011;2038;51.728;6.674;2023-07-28T01:42:31;5.50;;;4.97;;
4047;SDS011;2038;51.728;6.674;2023-07-28T01:44:57;6.50;;;5.00;;
4047;SDS011;2038;51.728;6.674;2023-07-28T01:47:23;6.53;;;5.10;;
4047;SDS011;2038;51.728;6.674;2023-07-28T01:49:50;8.67;;;5.53;;
4047;SDS011;2038;51.728;6.674;2023-07-28T01:52:16;10.77;;;6.30;;
4047;SDS011;2038;51.728;6.674;2023-07-28T01:54:43;6.53;;;5.40;;
4047;SDS011;2038;51.728;6.674;2023-07-28T01:57:09;7.20;;;5.87;;
4047;SDS011;2038;51.728;6.674;2023-07-28T01:59:35;6.37;;;5.50;;
4047;SDS011;2038;51.728;6.674;2023-07-28T02:02:01;8.00;;;5.70;;
4047;SDS011;2038;51.728;6.674;2023-07-28T02:04:28;7.27;;;6.17;;
4047;SDS011;2038;51.728;6.674;2023-07-28T02:06:54;8.30;;;5.93;;
4047;SDS011;2038;51.728;6.674;2023-07-28T02:09:20;9.50;;;7.13;;
4047;SDS011;2038;51.728;6.674;2023-07-28T02:11:46;7.97;;;5.53;;
4047;SDS011;2038;51.728;6.674;2023-07-28T02:14:12;8.10;;;5.63;;
4047;SDS011;2038;51.728;6.674;2023-07-28T02:16:39;6.87;;;5.83;;
4047;SDS011;2038;51.728;6.674;2023-07-28T02:19:05;7.60;;;6.03;;
4047;SDS011;2038;51.728;6.674;2023-07-28T02:21:31;6.57;;;5.40;;
4047;SDS011;2038;51.728;6.674;2023-07-28T02:23:57;7.40;;;6.57;;
4047;SDS011;2038;51.728;6.674;2023-07-28T02:26:23;10.10;;;6.33;;
4047;SDS011;2038;51.728;6.674;2023-07-28T02:28:50;6.63;;;4.77;;
4047;SDS011;2038;51.728;6.674;2023-07-28T02:31:16;8.10;;;6.10;;
4047;SDS011;2038;51.728;6.674;2023-07-28T02:33:42;11.33;;;5.23;;
4047;SDS011;2038;51.728;6.674;2023-07-28T02:36:08;8.80;;;5.97;;
4047;SDS011;2038;51.728;6.674;2023-07-28T02:38:35;11.43;;;6.47;;
4047;SDS011;2038;51.728;6.674;2023-07-28T02:41:01;15.40;;;6.20;;
4047;SDS011;2038;51.728;6.674;2023-07-28T02:43:28;11.00;;;7.40;;
4047;SDS011;2038;51.728;6.674;2023-07-28T02:45:56;7.10;;;6.37;;
4047;SDS011;2038;51.728;6.674;2023-07-28T02:48:23;11.20;;;7.33;;
4047;SDS011;2038;51.728;6.674;2023-07-28T02:50:50;9.20;;;6.80;;
4047;SDS011;2038;51.728;6.674;2023-07-28T02:53:17;9.67;;;6.97;;
4047;SDS011;2038;51.728;6.674;2023-07-28T02:55:44;13.83;;;6.93;;
4047;SDS011;2038;51.728;6.674;2023-07-28T02:58:13;12.30;;;6.23;;
4047;SDS011;2038;51.728;6.674;2023-07-28T03:00:41;11.20;;;8.43;;
4047;SDS011;2038;51.728;6.674;2023-07-28T03:03:09;10.37;;;7.87;;
4047;SDS011;2038;51.728;6.674;2023-07-28T03:05:39;8.17;;;6.77;;
4047;SDS011;2038;51.728;6.674;2023-07-28T03:08:06;11.13;;;8.33;;
4047;SDS011;2038;51.728;6.674;2023-07-28T03:10:32;11.00;;;8.30;;
4047;SDS011;2038;51.728;6.674;2023-07-28T03:12:58;11.97;;;8.37;;
4047;SDS011;2038;51.728;6.674;2023-07-28T03:15:24;7.73;;;6.73;;
4047;SDS011;2038;51.728;6.674;2023-07-28T03:17:51;12.00;;;8.37;;
4047;SDS011;2038;51.728;6.674;2023-07-28T03:20:19;12.30;;;8.00;;
4047;SDS011;2038;51.728;6.674;2023-07-28T03:22:45;13.20;;;8.63;;
4047;SDS011;2038;51.728;6.674;2023-07-28T03:25:12;13.40;;;8.80;;
4047;SDS011;2038;51.728;6.674;2023-07-28T03:27:38;12.37;;;8.63;;
4047;SDS011;2038;51.728;6.674;2023-07-28T03:30:04;12.07;;;8.30;;
4047;SDS011;2038;51.728;6.674;2023-07-28T03:32:35;12.50;;;8.80;;
4047;SDS011;2038;51.728;6.674;2023-07-28T03:35:02;15.70;;;9.10;;
4047;SDS011;2038;51.728;6.674;2023-07-28T03:37:33;13.30;;;9.53;;
4047;SDS011;2038;51.728;6.674;2023-07-28T03:39:59;11.10;;;8.60;;
4047;SDS011;2038;51.728;6.674;2023-07-28T03:42:26;15.17;;;9.70;;
4047;SDS011;2038;51.728;6.674;2023-07-28T03:44:52;14.97;;;9.27;;
4047;SDS011;2038;51.728;6.674;2023-07-28T03:47:19;13.33;;;9.83;;
4047;SDS011;2038;51.728;6.674;2023-07-28T03:49:45;14.60;;;9.40;;
4047;SDS011;2038;51.728;6.674;2023-07-28T03:52:11;15.30;;;9.50;;
4047;SDS011;2038;51.728;6.674;2023-07-28T03:54:37;13.13;;;9.77;;
4047;SDS011;2038;51.728;6.674;2023-07-28T03:57:04;13.67;;;8.77;;
4047;SDS011;2038;51.728;6.674;2023-07-28T03:59:30;10.67;;;8.53;;
4047;SDS011;2038;51.728;6.674;2023-07-28T04:01:56;13.57;;;8.43;;
4047;SDS011;2038;51.728;6.674;2023-07-28T04:04:23;14.00;;;8.67;;
4047;SDS011;2038;51.728;6.674;2023-07-28T04:06:49;12.00;;;9.20;;
4047;SDS011;2038;51.728;6.674;2023-07-28T04:09:17;12.10;;;8.33;;
4047;SDS011;2038;51.728;6.674;2023-07-28T04:11:44;13.20;;;9.03;;
4047;SDS011;2038;51.728;6.674;2023-07-28T04:14:11;13.80;;;8.50;;
4047;SDS011;2038;51.728;6.674;2023-07-28T04:16:38;11.53;;;9.03;;
4047;SDS011;2038;51.728;6.674;2023-07-28T04:19:04;12.30;;;8.23;;
4047;SDS011;2038;51.728;6.674;2023-07-28T04:21:30;13.50;;;9.30;;
4047;SDS011;2038;51.728;6.674;2023-07-28T04:23:57;14.50;;;8.97;;
4047;SDS011;2038;51.728;6.674;2023-07-28T04:26:23;12.00;;;7.83;;
4047;SDS011;2038;51.728;6.674;2023-07-28T04:28:50;14.10;;;7.70;;
4047;SDS011;2038;51.728;6.674;2023-07-28T04:31:16;15.33;;;9.80;;
4047;SDS011;2038;51.728;6.674;2023-07-28T04:33:42;13.73;;;8.13;;
4047;SDS011;2038;51.728;6.674;2023-07-28T04:36:09;14.00;;;9.60;;
4047;SDS011;2038;51.728;6.674;2023-07-28T04:38:35;10.80;;;7.70;;
4047;SDS011;2038;51.728;6.674;2023-07-28T04:41:01;11.93;;;8.87;;
4047;SDS011;2038;51.728;6.674;2023-07-28T04:43:28;11.47;;;8.40;;
4047;SDS011;2038;51.728;6.674;2023-07-28T04:45:54;15.67;;;8.83;;
4047;SDS011;2038;51.728;6.674;2023-07-28T04:48:21;11.30;;;8.80;;
4047;SDS011;2038;51.728;6.674;2023-07-28T04:50:47;14.07;;;9.27;;
4047;SDS011;2038;51.728;6.674;2023-07-28T04:53:13;15.20;;;8.60;;
4047;SDS011;2038;51.728;6.674;2023-07-28T04:55:39;11.43;;;8.80;;
4047;SDS011;2038;51.728;6.674;2023-07-28T04:58:06;15.20;;;9.10;;
4047;SDS011;2038;51.728;6.674;2023-07-28T05:00:32;12.40;;;8.93;;
4047;SDS011;2038;51.728;6.674;2023-07-28T05:02:58;15.33;;;9.57;;
4047;SDS011;2038;51.728;6.674;2023-07-28T05:05:25;15.03;;;11.23;;
4047;SDS011;2038;51.728;6.674;2023-07-28T05:07:51;16.53;;;10.33;;
4047;SDS011;2038;51.728;6.674;2023-07-28T05:10:17;16.47;;;10.90;;
4047;SDS011;2038;51.728;6.674;2023-07-28T05:12:43;15.47;;;10.43;;
4047;SDS011;2038;51.728;6.674;2023-07-28T05:15:10;16.30;;;10.63;;
4047;SDS011;2038;51.728;6.674;2023-07-28T05:17:36;19.10;;;11.23;;
4047;SDS011;2038;51.728;6.674;2023-07-28T05:20:03;13.83;;;8.90;;
4047;SDS011;2038;51.728;6.674;2023-07-28T05:22:30;19.37;;;11.50;;
4047;SDS011;2038;51.728;6.674;2023-07-28T05:24:56;21.10;;;11.53;;
4047;SDS011;2038;51.728;6.674;2023-07-28T05:27:22;13.83;;;9.97;;
4047;SDS011;2038;51.728;6.674;2023-07-28T05:29:48;18.00;;;11.93;;
4047;SDS011;2038;51.728;6.674;2023-07-28T05:32:14;18.43;;;10.77;;
4047;SDS011;2038;51.728;6.674;2023-07-28T05:34:44;19.63;;;10.87;;
4047;SDS011;2038;51.728;6.674;2023-07-28T05:37:10;17.77;;;11.20;;
4047;SDS011;2038;51.728;6.674;2023-07-28T05:39:36;20.83;;;11.53;;
4047;SDS011;2038;51.728;6.674;2023-07-28T05:42:03;21.23;;;11.57;;
4047;SDS011;2038;51.728;6.674;2023-07-28T05:44:29;18.10;;;12.00;;
4047;SDS011;2038;51.728;6.674;2023-07-28T05:46:55;17.20;;;10.67;;
4047;SDS011;2038;51.728;6.674;2023-07-28T05:49:21;17.37;;;11.30;;
4047;SDS011;2038;51.728;6.674;2023-07-28T05:51:48;20.47;;;13.07;;
4047;SDS011;2038;51.728;6.674;2023-07-28T05:54:14;25.97;;;12.23;;
4047;SDS011;2038;51.728;6.674;2023-07-28T05:56:40;19.10;;;11.27;;
4047;SDS011;2038;51.728;6.674;2023-07-28T05:59:07;18.60;;;12.00;;
4047;SDS011;2038;51.728;6.674;2023-07-28T06:01:34;18.50;;;12.20;;
4047;SDS011;2038;51.728;6.674;2023-07-28T06:04:00;15.47;;;11.30;;
4047;SDS011;2038;51.728;6.674;2023-07-28T06:06:26;23.70;;;12.43;;
4047;SDS011;2038;51.728;6.674;2023-07-28T06:08:53;18.63;;;12.53;;
4047;SDS011;2038;51.728;6.674;2023-07-28T06:11:20;20.60;;;11.40;;
4047;SDS011;2038;51.728;6.674;2023-07-28T06:13:47;17.60;;;11.60;;
4047;SDS011;2038;51.728;6.674;2023-07-28T06:16:13;23.60;;;13.10;;
4047;SDS011;2038;51.728;6.674;2023-07-28T06:18:40;22.47;;;13.67;;
4047;SDS011;2038;51.728;6.674;2023-07-28T06:21:06;25.90;;;13.30;;
4047;SDS011;2038;51.728;6.674;2023-07-28T06:23:32;21.40;;;13.57;;
4047;SDS011;2038;51.728;6.674;2023-07-28T06:25:59;19.53;;;13.50;;
4047;SDS011;2038;51.728;6.674;2023-07-28T06:28:25;23.37;;;14.43;;
4047;SDS011;2038;51.728;6.674;2023-07-28T06:30:55;22.47;;;14.00;;
4047;SDS011;2038;51.728;6.674;2023-07-28T06:33:23;30.60;;;15.17;;
4047;SDS011;2038;51.728;6.674;2023-07-28T06:35:50;25.53;;;13.40;;
4047;SDS011;2038;51.728;6.674;2023-07-28T06:38:17;23.70;;;12.77;;
4047;SDS011;2038;51.728;6.674;2023-07-28T06:40:43;27.23;;;15.63;;
4047;SDS011;2038;51.728;6.674;2023-07-28T06:43:09;29.10;;;16.60;;
4047;SDS011;2038;51.728;6.674;2023-07-28T06:45:36;27.53;;;15.80;;
4047;SDS011;2038;51.728;6.674;2023-07-28T06:48:02;29.43;;;16.23;;
4047;SDS011;2038;51.728;6.674;2023-07-28T06:50:29;25.60;;;16.20;;
4047;SDS011;2038;51.728;6.674;2023-07-28T06:52:55;27.07;;;15.67;;
4047;SDS011;2038;51.728;6.674;2023-07-28T06:55:22;24.13;;;14.80;;
4047;SDS011;2038;51.728;6.674;2023-07-28T06:57:48;20.80;;;14.03;;
4047;SDS011;2038;51.728;6.674;2023-07-28T07:00:15;25.50;;;15.40;;
4047;SDS011;2038;51.728;6.674;2023-07-28T07:02:42;24.00;;;15.00;;
4047;SDS011;2038;51.728;6.674;2023-07-28T07:05:09;26.17;;;16.00;;
4047;SDS011;2038;51.728;6.674;2023-07-28T07:07:36;21.60;;;14.50;;
4047;SDS011;2038;51.728;6.674;2023-07-28T07:10:04;26.73;;;14.50;;
4047;SDS011;2038;51.728;6.674;2023-07-28T07:12:31;21.00;;;14.87;;
4047;SDS011;2038;51.728;6.674;2023-07-28T07:14:57;22.37;;;12.80;;
4047;SDS011;2038;51.728;6.674;2023-07-28T07:17:23;21.50;;;12.73;;
4047;SDS011;2038;51.728;6.674;2023-07-28T07:19:50;24.60;;;15.03;;
4047;SDS011;2038;51.728;6.674;2023-07-28T07:22:16;23.07;;;14.57;;
4047;SDS011;2038;51.728;6.674;2023-07-28T07:24:43;21.07;;;15.53;;
4047;SDS011;2038;51.728;6.674;2023-07-28T07:27:09;21.10;;;15.10;;
4047;SDS011;2038;51.728;6.674;2023-07-28T07:29:36;26.33;;;14.80;;
4047;SDS011;2038;51.728;6.674;2023-07-28T07:32:06;20.10;;;14.53;;
4047;SDS011;2038;51.728;6.674;2023-07-28T07:34:33;21.07;;;12.60;;
4047;SDS011;2038;51.728;6.674;2023-07-28T07:37:01;18.17;;;12.47;;
4047;SDS011;2038;51.728;6.674;2023-07-28T07:39:28;18.97;;;13.43;;
4047;SDS011;2038;51.728;6.674;2023-07-28T07:41:54;23.03;;;15.53;;
4047;SDS011;2038;51.728;6.674;2023-07-28T07:44:20;21.40;;;12.90;;
4047;SDS011;2038;51.728;6.674;2023-07-28T07:46:47;19.67;;;14.03;;
4047;SDS011;2038;51.728;6.674;2023-07-28T07:49:14;19.87;;;15.00;;
4047;SDS011;2038;51.728;6.674;2023-07-28T07:51:40;23.00;;;15.47;;
4047;SDS011;2038;51.728;6.674;2023-07-28T07:54:07;21.60;;;15.17;;
4047;SDS011;2038;51.728;6.674;2023-07-28T07:56:33;24.73;;;17.60;;
4047;SDS011;2038;51.728;6.674;2023-07-28T07:58:59;24.87;;;15.77;;
4047;SDS011;2038;51.728;6.674;2023-07-28T08:01:25;29.50;;;16.70;;
4047;SDS011;2038;51.728;6.674;2023-07-28T08:03:52;23.50;;;15.73;;
4047;SDS011;2038;51.728;6.674;2023-07-28T08:06:18;29.63;;;17.90;;
4047;SDS011;2038;51.728;6.674;2023-07-28T08:08:44;21.80;;;16.20;;
4047;SDS011;2038;51.728;6.674;2023-07-28T08:11:11;24.83;;;17.20;;
4047;SDS011;2038;51.728;6.674;2023-07-28T08:13:37;25.13;;;16.70;;
4047;SDS011;2038;51.728;6.674;2023-07-28T08:16:03;30.10;;;19.60;;
4047;SDS011;2038;51.728;6.674;2023-07-28T08:18:30;33.00;;;21.93;;
4047;SDS011;2038;51.728;6.674;2023-07-28T08:20:56;35.90;;;22.23;;
4047;SDS011;2038;51.728;6.674;2023-07-28T08:23:22;34.47;;;22.53;;
4047;SDS011;2038;51.728;6.674;2023-07-28T08:25:48;35.70;;;20.47;;
4047;SDS011;2038;51.728;6.674;2023-07-28T08:28:15;35.07;;;21.83;;
4047;SDS011;2038;51.728;6.674;2023-07-28T08:30:41;27.80;;;19.57;;
4047;SDS011;2038;51.728;6.674;2023-07-28T08:33:07;32.63;;;21.60;;
4047;SDS011;2038;51.728;6.674;2023-07-28T08:35:33;32.10;;;20.43;;
4047;SDS011;2038;51.728;6.674;2023-07-28T08:38:00;39.00;;;22.80;;
4047;SDS011;2038;51.728;6.674;2023-07-28T08:40:26;33.33;;;21.40;;
4047;SDS011;2038;51.728;6.674;2023-07-28T08:42:53;44.57;;;25.03;;
4047;SDS011;2038;51.728;6.674;2023-07-28T08:45:19;39.40;;;24.43;;
4047;SDS011;2038;51.728;6.674;2023-07-28T08:47:45;35.43;;;22.90;;
4047;SDS011;2038;51.728;6.674;2023-07-28T08:50:12;34.23;;;22.40;;
4047;SDS011;2038;51.728;6.674;2023-07-28T08:52:38;34.40;;;23.30;;
4047;SDS011;2038;51.728;6.674;2023-07-28T08:55:04;39.77;;;22.60;;
4047;SDS011;2038;51.728;6.674;2023-07-28T08:57:31;29.97;;;18.97;;
4047;SDS011;2038;51.728;6.674;2023-07-28T08:59:57;31.23;;;20.03;;
4047;SDS011;2038;51.728;6.674;2023-07-28T09:02:24;36.17;;;21.07;;
4047;SDS011;2038;51.728;6.674;2023-07-28T09:04:50;29.97;;;20.50;;
4047;SDS011;2038;51.728;6.674;2023-07-28T09:07:16;34.33;;;23.10;;
4047;SDS011;2038;51.728;6.674;2023-07-28T09:09:42;34.57;;;20.43;;
4047;SDS011;2038;51.728;6.674;2023-07-28T09:12:09;29.97;;;20.00;;
4047;SDS011;2038;51.728;6.674;2023-07-28T09:14:36;34.77;;;21.50;;
4047;SDS011;2038;51.728;6.674;2023-07-28T09:17:07;31.87;;;20.63;;
4047;SDS011;2038;51.728;6.674;2023-07-28T09:19:48;31.50;;;21.30;;
4047;SDS011;2038;51.728;6.674;2023-07-28T09:22:21;29.30;;;17.23;;
4047;SDS011;2038;51.728;6.674;2023-07-28T09:24:48;27.70;;;18.47;;
4047;SDS011;2038;51.728;6.674;2023-07-28T09:27:20;27.70;;;18.67;;
4047;SDS011;2038;51.728;6.674;2023-07-28T09:29:50;26.00;;;16.90;;
4047;SDS011;2038;51.728;6.674;2023-07-28T09:32:26;22.90;;;17.50;;
4047;SDS011;2038;51.728;6.674;2023-07-28T09:35:05;30.80;;;17.30;;
4047;SDS011;2038;51.728;6.674;2023-07-28T09:37:36;33.00;;;18.30;;
4047;SDS011;2038;51.728;6.674;2023-07-28T09:40:16;26.10;;;17.47;;
4047;SDS011;2038;51.728;6.674;2023-07-28T09:42:46;25.50;;;16.07;;
4047;SDS011;2038;51.728;6.674;2023-07-28T09:45:15;27.73;;;16.87;;
4047;SDS011;2038;51.728;6.674;2023-07-28T09:47:46;19.50;;;14.73;;
4047;SDS011;2038;51.728;6.674;2023-07-28T09:50:19;22.10;;;13.43;;
4047;SDS011;2038;51.728;6.674;2023-07-28T09:52:53;15.63;;;12.03;;
4047;SDS011;2038;51.728;6.674;2023-07-28T09:55:25;14.70;;;11.90;;
4047;SDS011;2038;51.728;6.674;2023-07-28T09:57:54;16.53;;;12.47;;
4047;SDS011;2038;51.728;6.674;2023-07-28T10:00:24;13.47;;;10.37;;
4047;SDS011;2038;51.728;6.674;2023-07-28T10:02:51;20.00;;;13.50;;
4047;SDS011;2038;51.728;6.674;2023-07-28T10:05:19;15.27;;;12.37;;
4047;SDS011;2038;51.728;6.674;2023-07-28T10:07:45;15.20;;;12.20;;
4047;SDS011;2038;51.728;6.674;2023-07-28T10:10:14;13.77;;;11.80;;
4047;SDS011;2038;51.728;6.674;2023-07-28T10:12:42;13.37;;;11.00;;
4047;SDS011;2038;51.728;6.674;2023-07-28T10:15:14;14.77;;;10.80;;
4047;SDS011;2038;51.728;6.674;2023-07-28T10:17:46;15.00;;;11.70;;
4047;SDS011;2038;51.728;6.674;2023-07-28T10:20:31;14.67;;;11.20;;
4047;SDS011;2038;51.728;6.674;2023-07-28T10:25:47;10.40;;;9.27;;
4047;SDS011;2038;51.728;6.674;2023-07-28T10:28:27;10.60;;;9.17;;
4047;SDS011;2038;51.728;6.674;2023-07-28T10:30:56;12.30;;;9.90;;
4047;SDS011;2038;51.728;6.674;2023-07-28T10:33:31;13.10;;;9.73;;
4047;SDS011;2038;51.728;6.674;2023-07-28T10:38:58;10.17;;;8.90;;
4047;SDS011;2038;51.728;6.674;2023-07-28T10:41:34;11.50;;;10.30;;
4047;SDS011;2038;51.728;6.674;2023-07-28T10:44:01;13.20;;;9.40;;
4047;SDS011;2038;51.728;6.674;2023-07-28T10:46:28;12.47;;;9.53;;
4047;SDS011;2038;51.728;6.674;2023-07-28T10:48:55;11.40;;;7.83;;
4047;SDS011;2038;51.728;6.674;2023-07-28T10:51:29;11.17;;;9.37;;
4047;SDS011;2038;51.728;6.674;2023-07-28T10:53:59;9.70;;;8.70;;
4047;SDS011;2038;51.728;6.674;2023-07-28T10:56:29;11.03;;;8.57;;
4047;SDS011;2038;51.728;6.674;2023-07-28T10:58:59;11.57;;;8.90;;
4047;SDS011;2038;51.728;6.674;2023-07-28T11:01:32;9.90;;;8.60;;
4047;SDS011;2038;51.728;6.674;2023-07-28T11:06:37;9.47;;;8.03;;
4047;SDS011;2038;51.728;6.674;2023-07-28T11:09:07;9.40;;;8.40;;
4047;SDS011;2038;51.728;6.674;2023-07-28T11:11:38;10.40;;;7.30;;
4047;SDS011;2038;51.728;6.674;2023-07-28T11:14:06;10.10;;;7.93;;
4047;SDS011;2038;51.728;6.674;2023-07-28T11:16:37;8.90;;;8.00;;
4047;SDS011;2038;51.728;6.674;2023-07-28T11:19:10;10.90;;;9.20;;
4047;SDS011;2038;51.728;6.674;2023-07-28T11:21:42;9.53;;;8.00;;
4047;SDS011;2038;51.728;6.674;2023-07-28T11:24:17;9.50;;;6.87;;
4047;SDS011;2038;51.728;6.674;2023-07-28T11:26:45;8.07;;;7.00;;
4047;SDS011;2038;51.728;6.674;2023-07-28T11:29:12;7.63;;;6.83;;
4047;SDS011;2038;51.728;6.674;2023-07-28T11:31:38;7.50;;;6.80;;
4047;SDS011;2038;51.728;6.674;2023-07-28T11:34:13;9.70;;;7.90;;
4047;SDS011;2038;51.728;6.674;2023-07-28T11:36:41;8.30;;;7.47;;
4047;SDS011;2038;51.728;6.674;2023-07-28T11:39:07;7.47;;;6.57;;
4047;SDS011;2038;51.728;6.674;2023-07-28T11:41:35;7.83;;;7.03;;
4047;SDS011;2038;51.728;6.674;2023-07-28T11:44:04;9.37;;;6.90;;
4047;SDS011;2038;51.728;6.674;2023-07-28T11:49:11;5.53;;;5.03;;
4047;SDS011;2038;51.728;6.674;2023-07-28T11:51:47;5.67;;;5.07;;
4047;SDS011;2038;51.728;6.674;2023-07-28T11:54:17;4.83;;;4.33;;
4047;SDS011;2038;51.728;6.674;2023-07-28T11:56:48;5.37;;;4.87;;
4047;SDS011;2038;51.728;6.674;2023-07-28T11:59:17;5.57;;;5.07;;
4047;SDS011;2038;51.728;6.674;2023-07-28T12:02:00;5.50;;;5.00;;
4047;SDS011;2038;51.728;6.674;2023-07-28T12:04:35;8.53;;;5.93;;
4047;SDS011;2038;51.728;6.674;2023-07-28T12:12:22;5.73;;;5.13;;
4047;SDS011;2038;51.728;6.674;2023-07-28T12:14:51;5.90;;;4.80;;
4047;SDS011;2038;51.728;6.674;2023-07-28T12:17:18;5.77;;;5.27;;
4047;SDS011;2038;51.728;6.674;2023-07-28T12:20:04;4.80;;;4.40;;
4047;SDS011;2038;51.728;6.674;2023-07-28T12:22:39;5.53;;;4.73;;
4047;SDS011;2038;51.728;6.674;2023-07-28T12:25:08;5.50;;;5.07;;
4047;SDS011;2038;51.728;6.674;2023-07-28T12:27:35;6.03;;;5.53;;
4047;SDS011;2038;51.728;6.674;2023-07-28T12:30:02;5.93;;;4.63;;
4047;SDS011;2038;51.728;6.674;2023-07-28T12:32:29;5.10;;;4.70;;
4047;SDS011;2038;51.728;6.674;2023-07-28T12:34:56;4.60;;;4.20;;
4047;SDS011;2038;51.728;6.674;2023-07-28T12:37:22;4.37;;;3.97;;
4047;SDS011;2038;51.728;6.674;2023-07-28T12:39:48;5.73;;;4.70;;
4047;SDS011;2038;51.728;6.674;2023-07-28T12:42:14;5.73;;;4.93;;
4047;SDS011;2038;51.728;6.674;2023-07-28T12:44:41;5.80;;;4.33;;
4047;SDS011;2038;51.728;6.674;2023-07-28T12:47:08;4.87;;;4.30;;
4047;SDS011;2038;51.728;6.674;2023-07-28T12:49:34;5.10;;;3.87;;
4047;SDS011;2038;51.728;6.674;2023-07-28T12:52:01;4.00;;;3.13;;
4047;SDS011;2038;51.728;6.674;2023-07-28T12:54:34;4.03;;;3.63;;
4047;SDS011;2038;51.728;6.674;2023-07-28T12:57:00;3.57;;;3.27;;
4047;SDS011;2038;51.728;6.674;2023-07-28T12:59:27;4.30;;;3.50;;
4047;SDS011;2038;51.728;6.674;2023-07-28T13:01:55;4.67;;;3.83;;
4047;SDS011;2038;51.728;6.674;2023-07-28T13:04:22;2.70;;;2.47;;
4047;SDS011;2038;51.728;6.674;2023-07-28T13:06:48;3.27;;;2.97;;
4047;SDS011;2038;51.728;6.674;2023-07-28T13:09:14;5.30;;;3.70;;
4047;SDS011;2038;51.728;6.674;2023-07-28T13:11:40;2.83;;;2.60;;
4047;SDS011;2038;51.728;6.674;2023-07-28T13:14:07;5.30;;;3.40;;
4047;SDS011;2038;51.728;6.674;2023-07-28T13:16:33;2.60;;;2.40;;
4047;SDS011;2038;51.728;6.674;2023-07-28T13:19:01;3.67;;;2.57;;
4047;SDS011;2038;51.728;6.674;2023-07-28T13:21:27;3.27;;;2.60;;
4047;SDS011;2038;51.728;6.674;2023-07-28T13:23:53;2.63;;;2.43;;
4047;SDS011;2038;51.728;6.674;2023-07-28T13:26:20;4.67;;;2.43;;
4047;SDS011;2038;51.728;6.674;2023-07-28T13:28:46;3.13;;;2.67;;
4047;SDS011;2038;51.728;6.674;2023-07-28T13:31:13;2.30;;;2.10;;
4047;SDS011;2038;51.728;6.674;2023-07-28T13:33:42;2.40;;;2.20;;
4047;SDS011;2038;51.728;6.674;2023-07-28T13:36:09;2.70;;;2.40;;
4047;SDS011;2038;51.728;6.674;2023-07-28T13:38:36;2.30;;;2.10;;
4047;SDS011;2038;51.728;6.674;2023-07-28T13:41:04;4.73;;;2.30;;
4047;SDS011;2038;51.728;6.674;2023-07-28T13:43:34;3.10;;;2.30;;
4047;SDS011;2038;51.728;6.674;2023-07-28T13:46:02;3.20;;;2.90;;
4047;SDS011;2038;51.728;6.674;2023-07-28T13:48:32;1.93;;;1.83;;
4047;SDS011;2038;51.728;6.674;2023-07-28T13:51:01;4.63;;;2.00;;
4047;SDS011;2038;51.728;6.674;2023-07-28T13:53:27;2.50;;;2.17;;
4047;SDS011;2038;51.728;6.674;2023-07-28T13:55:54;2.47;;;2.27;;
4047;SDS011;2038;51.728;6.674;2023-07-28T13:58:21;2.03;;;1.60;;
4047;SDS011;2038;51.728;6.674;2023-07-28T14:00:48;4.30;;;2.23;;
4047;SDS011;2038;51.728;6.674;2023-07-28T14:03:14;2.10;;;1.80;;
4047;SDS011;2038;51.728;6.674;2023-07-28T14:05:41;2.77;;;2.00;;
4047;SDS011;2038;51.728;6.674;2023-07-28T14:08:07;1.80;;;1.70;;
4047;SDS011;2038;51.728;6.674;2023-07-28T14:10:33;1.80;;;1.70;;
4047;SDS011;2038;51.728;6.674;2023-07-28T14:13:03;2.07;;;1.57;;
4047;SDS011;2038;51.728;6.674;2023-07-28T14:15:29;2.20;;;1.90;;
4047;SDS011;2038;51.728;6.674;2023-07-28T14:17:55;1.67;;;1.57;;
4047;SDS011;2038;51.728;6.674;2023-07-28T14:20:22;1.80;;;1.70;;
4047;SDS011;2038;51.728;6.674;2023-07-28T14:22:48;1.70;;;1.57;;
4047;SDS011;2038;51.728;6.674;2023-07-28T14:25:14;1.97;;;1.77;;
4047;SDS011;2038;51.728;6.674;2023-07-28T14:27:40;1.93;;;1.77;;
4047;SDS011;2038;51.728;6.674;2023-07-28T14:30:07;2.17;;;1.97;;
4047;SDS011;2038;51.728;6.674;2023-07-28T14:32:33;1.63;;;1.30;;
4047;SDS011;2038;51.728;6.674;2023-07-28T14:35:00;1.60;;;1.50;;
4047;SDS011;2038;51.728;6.674;2023-07-28T14:37:26;7.20;;;1.47;;
4047;SDS011;2038;51.728;6.674;2023-07-28T14:39:52;1.80;;;1.70;;
4047;SDS011;2038;51.728;6.674;2023-07-28T14:42:18;5.50;;;1.93;;
4047;SDS011;2038;51.728;6.674;2023-07-28T14:44:45;2.20;;;1.60;;
4047;SDS011;2038;51.728;6.674;2023-07-28T14:47:11;1.87;;;1.70;;
4047;SDS011;2038;51.728;6.674;2023-07-28T14:49:37;1.87;;;1.77;;
4047;SDS011;2038;51.728;6.674;2023-07-28T14:52:03;1.67;;;1.57;;
4047;SDS011;2038;51.728;6.674;2023-07-28T14:54:30;3.83;;;1.80;;
4047;SDS011;2038;51.728;6.674;2023-07-28T14:56:56;2.27;;;2.00;;
4047;SDS011;2038;51.728;6.674;2023-07-28T14:59:23;2.47;;;2.27;;
4047;SDS011;2038;51.728;6.674;2023-07-28T15:01:49;3.13;;;2.33;;
4047;SDS011;2038;51.728;6.674;2023-07-28T15:04:15;3.10;;;1.73;;
4047;SDS011;2038;51.728;6.674;2023-07-28T15:06:41;2.33;;;2.13;;
4047;SDS011;2038;51.728;6.674;2023-07-28T15:09:07;2.53;;;2.33;;
4047;SDS011;2038;51.728;6.674;2023-07-28T15:11:34;2.20;;;2.07;;
4047;SDS011;2038;51.728;6.674;2023-07-28T15:14:00;2.53;;;2.33;;
4047;SDS011;2038;51.728;6.674;2023-07-28T15:16:26;2.60;;;2.40;;
4047;SDS011;2038;51.728;6.674;2023-07-28T15:18:52;2.40;;;2.20;;
4047;SDS011;2038;51.728;6.674;2023-07-28T15:21:19;1.97;;;1.80;;
4047;SDS011;2038;51.728;6.674;2023-07-28T15:23:52;3.20;;;2.40;;
4047;SDS011;2038;51.728;6.674;2023-07-28T15:26:20;3.47;;;2.10;;